sensor_id;sensor_type;location;lat;lon;timestamp;temperature;humidity
13686;DHT22;6915;48.296;8.874;2024-02-14T00:04:56;0.40;99.90
13686;DHT22;6915;48.296;8.874;2024-02-14T00:07:23;0.40;99.90
13686;DHT22;6915;48.296;8.874;2024-02-14T00:09:52;0.40;99.90
13686;DHT22;6915;48.296;8.874;2024-02-14T00:12:19;0.70;99.90
13686;DHT22;6915;48.296;8.874;2024-02-14T00:14:46;0.40;99.90
13686;DHT22;6915;48.296;8.874;2024-02-14T00:17:14;0.40;99.90
13686;DHT22;6915;48.296;8.874;2024-02-14T00:19:41;0.30;99.90
13686;DHT22;6915;48.296;8.874;2024-02-14T00:22:09;0.40;99.90
13686;DHT22;6915;48.296;8.874;2024-02-14T00:24:36;0.30;99.90
13686;DHT22;6915;48.296;8.874;2024-02-14T00:27:03;0.40;99.90
13686;DHT22;6915;48.296;8.874;2024-02-14T00:29:31;0.40;99.90
13686;DHT22;6915;48.296;8.874;2024-02-14T00:31:59;0.50;99.90
13686;DHT22;6915;48.296;8.874;2024-02-14T00:34:26;0.40;99.90
13686;DHT22;6915;48.296;8.874;2024-02-14T00:36:53;0.50;99.90
13686;DHT22;6915;48.296;8.874;2024-02-14T00:39:22;0.60;99.90
13686;DHT22;6915;48.296;8.874;2024-02-14T00:41:49;0.60;99.90
13686;DHT22;6915;48.296;8.874;2024-02-14T00:44:18;0.70;99.90
13686;DHT22;6915;48.296;8.874;2024-02-14T00:46:45;0.70;99.90
13686;DHT22;6915;48.296;8.874;2024-02-14T00:49:12;0.70;99.90
13686;DHT22;6915;48.296;8.874;2024-02-14T00:51:39;0.90;99.90
13686;DHT22;6915;48.296;8.874;2024-02-14T00:54:06;0.90;99.90
13686;DHT22;6915;48.296;8.874;2024-02-14T00:56:35;0.80;99.90
13686;DHT22;6915;48.296;8.874;2024-02-14T00:59:02;0.80;99.90
13686;DHT22;6915;48.296;8.874;2024-02-14T01:01:29;0.90;99.90
13686;DHT22;6915;48.296;8.874;2024-02-14T01:03:56;0.90;99.90
13686;DHT22;6915;48.296;8.874;2024-02-14T01:06:23;0.90;99.90
13686;DHT22;6915;48.296;8.874;2024-02-14T01:08:50;1.00;99.90
13686;DHT22;6915;48.296;8.874;2024-02-14T01:11:17;1.00;99.90
13686;DHT22;6915;48.296;8.874;2024-02-14T01:13:45;1.00;99.90
13686;DHT22;6915;48.296;8.874;2024-02-14T01:16:12;1.10;99.90
13686;DHT22;6915;48.296;8.874;2024-02-14T01:18:40;1.30;99.90
13686;DHT22;6915;48.296;8.874;2024-02-14T01:21:06;1.20;99.90
13686;DHT22;6915;48.296;8.874;2024-02-14T01:23:33;1.20;99.90
13686;DHT22;6915;48.296;8.874;2024-02-14T01:26:01;1.20;99.90
13686;DHT22;6915;48.296;8.874;2024-02-14T01:28:28;1.20;99.90
13686;DHT22;6915;48.296;8.874;2024-02-14T01:30:57;1.20;99.90
13686;DHT22;6915;48.296;8.874;2024-02-14T01:33:24;1.20;99.90
13686;DHT22;6915;48.296;8.874;2024-02-14T01:35:51;1.30;99.90
13686;DHT22;6915;48.296;8.874;2024-02-14T01:38:18;1.40;99.90
13686;DHT22;6915;48.296;8.874;2024-02-14T01:40:45;1.30;99.90
13686;DHT22;6915;48.296;8.874;2024-02-14T01:43:12;1.30;99.90
13686;DHT22;6915;48.296;8.874;2024-02-14T01:45:40;1.40;99.90
13686;DHT22;6915;48.296;8.874;2024-02-14T01:48:09;1.30;99.90
13686;DHT22;6915;48.296;8.874;2024-02-14T01:50:36;1.60;99.90
13686;DHT22;6915;48.296;8.874;2024-02-14T01:53:06;1.60;99.90
13686;DHT22;6915;48.296;8.874;2024-02-14T01:55:34;1.60;99.90
13686;DHT22;6915;48.296;8.874;2024-02-14T01:58:01;1.60;99.90
13686;DHT22;6915;48.296;8.874;2024-02-14T02:00:30;1.60;99.90
13686;DHT22;6915;48.296;8.874;2024-02-14T02:02:58;1.60;99.90
13686;DHT22;6915;48.296;8.874;2024-02-14T02:05:26;1.60;99.90
13686;DHT22;6915;48.296;8.874;2024-02-14T02:07:54;1.70;99.90
13686;DHT22;6915;48.296;8.874;2024-02-14T02:10:21;1.60;99.90
13686;DHT22;6915;48.296;8.874;2024-02-14T02:12:58;1.60;99.90
13686;DHT22;6915;48.296;8.874;2024-02-14T02:15:25;1.60;99.90
13686;DHT22;6915;48.296;8.874;2024-02-14T02:17:53;1.60;99.90
13686;DHT22;6915;48.296;8.874;2024-02-14T02:20:20;1.60;99.90
13686;DHT22;6915;48.296;8.874;2024-02-14T02:22:48;1.60;99.90
13686;DHT22;6915;48.296;8.874;2024-02-14T02:25:15;1.60;99.90
13686;DHT22;6915;48.296;8.874;2024-02-14T02:27:42;1.60;99.90
13686;DHT22;6915;48.296;8.874;2024-02-14T02:30:09;1.60;99.90
13686;DHT22;6915;48.296;8.874;2024-02-14T02:32:36;1.60;99.90
13686;DHT22;6915;48.296;8.874;2024-02-14T02:35:04;1.60;99.90
13686;DHT22;6915;48.296;8.874;2024-02-14T02:37:31;1.50;99.90
13686;DHT22;6915;48.296;8.874;2024-02-14T02:39:59;1.50;99.90
13686;DHT22;6915;48.296;8.874;2024-02-14T02:42:26;1.60;99.90
13686;DHT22;6915;48.296;8.874;2024-02-14T02:44:54;1.70;99.90
13686;DHT22;6915;48.296;8.874;2024-02-14T02:47:21;1.80;99.90
13686;DHT22;6915;48.296;8.874;2024-02-14T02:49:48;2.10;99.90
13686;DHT22;6915;48.296;8.874;2024-02-14T02:52:15;2.00;99.90
13686;DHT22;6915;48.296;8.874;2024-02-14T02:54:42;2.20;99.90
13686;DHT22;6915;48.296;8.874;2024-02-14T02:57:11;2.30;99.90
13686;DHT22;6915;48.296;8.874;2024-02-14T02:59:37;2.40;99.90
13686;DHT22;6915;48.296;8.874;2024-02-14T03:02:08;2.50;99.90
13686;DHT22;6915;48.296;8.874;2024-02-14T03:04:37;2.50;99.90
13686;DHT22;6915;48.296;8.874;2024-02-14T03:07:04;2.40;99.90
13686;DHT22;6915;48.296;8.874;2024-02-14T03:09:33;2.20;99.90
13686;DHT22;6915;48.296;8.874;2024-02-14T03:12:00;2.20;99.90
13686;DHT22;6915;48.296;8.874;2024-02-14T03:14:30;2.10;99.90
13686;DHT22;6915;48.296;8.874;2024-02-14T03:16:58;1.90;99.90
13686;DHT22;6915;48.296;8.874;2024-02-14T03:19:25;1.90;99.90
13686;DHT22;6915;48.296;8.874;2024-02-14T03:21:53;1.70;99.90
13686;DHT22;6915;48.296;8.874;2024-02-14T03:24:20;1.70;99.90
13686;DHT22;6915;48.296;8.874;2024-02-14T03:26:47;1.70;99.90
13686;DHT22;6915;48.296;8.874;2024-02-14T03:29:17;1.60;99.90
13686;DHT22;6915;48.296;8.874;2024-02-14T03:31:46;1.60;99.90
13686;DHT22;6915;48.296;8.874;2024-02-14T03:34:13;1.60;99.90
13686;DHT22;6915;48.296;8.874;2024-02-14T03:36:40;1.80;99.90
13686;DHT22;6915;48.296;8.874;2024-02-14T03:39:08;1.80;99.90
13686;DHT22;6915;48.296;8.874;2024-02-14T03:41:36;1.70;99.90
13686;DHT22;6915;48.296;8.874;2024-02-14T03:44:03;1.70;99.90
13686;DHT22;6915;48.296;8.874;2024-02-14T03:46:32;1.80;99.90
13686;DHT22;6915;48.296;8.874;2024-02-14T03:49:02;1.90;99.90
13686;DHT22;6915;48.296;8.874;2024-02-14T03:51:28;2.00;99.90
13686;DHT22;6915;48.296;8.874;2024-02-14T03:53:55;2.00;99.90
13686;DHT22;6915;48.296;8.874;2024-02-14T03:56:22;2.00;99.90
13686;DHT22;6915;48.296;8.874;2024-02-14T03:58:49;2.00;99.90
13686;DHT22;6915;48.296;8.874;2024-02-14T04:02:03;1.90;99.90
13686;DHT22;6915;48.296;8.874;2024-02-14T04:04:38;2.00;99.90
13686;DHT22;6915;48.296;8.874;2024-02-14T04:07:14;2.10;99.90
13686;DHT22;6915;48.296;8.874;2024-02-14T04:09:58;2.30;99.90
13686;DHT22;6915;48.296;8.874;2024-02-14T04:12:25;2.30;99.90
13686;DHT22;6915;48.296;8.874;2024-02-14T04:17:27;2.50;99.90
13686;DHT22;6915;48.296;8.874;2024-02-14T04:19:55;2.60;99.90
13686;DHT22;6915;48.296;8.874;2024-02-14T04:22:24;2.80;99.90
13686;DHT22;6915;48.296;8.874;2024-02-14T04:24:53;3.00;99.90
13686;DHT22;6915;48.296;8.874;2024-02-14T04:28:11;3.30;99.90
13686;DHT22;6915;48.296;8.874;2024-02-14T04:30:41;3.60;99.90
13686;DHT22;6915;48.296;8.874;2024-02-14T04:33:08;3.80;99.90
13686;DHT22;6915;48.296;8.874;2024-02-14T04:35:40;3.90;99.90
13686;DHT22;6915;48.296;8.874;2024-02-14T04:38:09;3.70;99.90
13686;DHT22;6915;48.296;8.874;2024-02-14T04:40:35;3.40;99.90
13686;DHT22;6915;48.296;8.874;2024-02-14T04:43:04;3.10;99.90
13686;DHT22;6915;48.296;8.874;2024-02-14T04:45:31;2.90;99.90
13686;DHT22;6915;48.296;8.874;2024-02-14T04:47:58;2.60;99.90
13686;DHT22;6915;48.296;8.874;2024-02-14T04:50:24;2.60;99.90
13686;DHT22;6915;48.296;8.874;2024-02-14T04:52:53;2.20;99.90
13686;DHT22;6915;48.296;8.874;2024-02-14T04:55:20;2.30;99.90
13686;DHT22;6915;48.296;8.874;2024-02-14T04:57:46;2.20;99.90
13686;DHT22;6915;48.296;8.874;2024-02-14T05:00:14;2.10;99.90
13686;DHT22;6915;48.296;8.874;2024-02-14T05:02:41;2.10;99.90
13686;DHT22;6915;48.296;8.874;2024-02-14T05:05:08;2.20;99.90
13686;DHT22;6915;48.296;8.874;2024-02-14T05:07:35;2.50;99.90
13686;DHT22;6915;48.296;8.874;2024-02-14T05:10:04;2.70;99.90
13686;DHT22;6915;48.296;8.874;2024-02-14T05:12:33;2.90;99.90
13686;DHT22;6915;48.296;8.874;2024-02-14T05:15:00;3.10;99.90
13686;DHT22;6915;48.296;8.874;2024-02-14T05:17:28;3.50;99.90
13686;DHT22;6915;48.296;8.874;2024-02-14T05:19:55;3.60;99.90
13686;DHT22;6915;48.296;8.874;2024-02-14T05:22:22;3.80;99.90
13686;DHT22;6915;48.296;8.874;2024-02-14T05:24:49;3.80;99.90
13686;DHT22;6915;48.296;8.874;2024-02-14T05:27:18;4.10;99.90
13686;DHT22;6915;48.296;8.874;2024-02-14T05:29:45;4.20;99.90
13686;DHT22;6915;48.296;8.874;2024-02-14T05:32:12;4.20;99.90
13686;DHT22;6915;48.296;8.874;2024-02-14T05:34:39;4.20;99.90
13686;DHT22;6915;48.296;8.874;2024-02-14T05:37:06;4.30;99.90
13686;DHT22;6915;48.296;8.874;2024-02-14T05:39:33;4.20;99.90
13686;DHT22;6915;48.296;8.874;2024-02-14T05:42:00;4.20;99.90
13686;DHT22;6915;48.296;8.874;2024-02-14T05:44:29;4.10;99.90
13686;DHT22;6915;48.296;8.874;2024-02-14T05:46:56;4.00;99.90
13686;DHT22;6915;48.296;8.874;2024-02-14T05:49:23;3.80;99.90
13686;DHT22;6915;48.296;8.874;2024-02-14T05:51:50;3.80;99.90
13686;DHT22;6915;48.296;8.874;2024-02-14T05:54:18;4.00;99.90
13686;DHT22;6915;48.296;8.874;2024-02-14T05:56:45;3.90;99.90
13686;DHT22;6915;48.296;8.874;2024-02-14T05:59:12;4.00;99.90
13686;DHT22;6915;48.296;8.874;2024-02-14T06:01:41;4.10;99.90
13686;DHT22;6915;48.296;8.874;2024-02-14T06:04:08;4.30;99.90
13686;DHT22;6915;48.296;8.874;2024-02-14T06:06:35;4.50;99.90
13686;DHT22;6915;48.296;8.874;2024-02-14T06:09:02;4.90;99.90
13686;DHT22;6915;48.296;8.874;2024-02-14T06:11:35;5.10;99.90
13686;DHT22;6915;48.296;8.874;2024-02-14T06:14:04;5.40;99.90
13686;DHT22;6915;48.296;8.874;2024-02-14T06:16:31;5.70;99.90
13686;DHT22;6915;48.296;8.874;2024-02-14T06:19:00;5.80;99.90
13686;DHT22;6915;48.296;8.874;2024-02-14T06:21:29;5.90;99.90
13686;DHT22;6915;48.296;8.874;2024-02-14T06:23:58;6.00;99.90
13686;DHT22;6915;48.296;8.874;2024-02-14T06:26:25;6.10;99.90
13686;DHT22;6915;48.296;8.874;2024-02-14T06:28:52;6.30;99.90
13686;DHT22;6915;48.296;8.874;2024-02-14T06:31:20;6.30;99.90
13686;DHT22;6915;48.296;8.874;2024-02-14T06:33:47;6.30;99.90
13686;DHT22;6915;48.296;8.874;2024-02-14T06:36:15;6.40;99.90
13686;DHT22;6915;48.296;8.874;2024-02-14T06:38:42;6.60;99.90
13686;DHT22;6915;48.296;8.874;2024-02-14T06:41:11;6.70;99.90
13686;DHT22;6915;48.296;8.874;2024-02-14T06:43:38;6.80;99.90
13686;DHT22;6915;48.296;8.874;2024-02-14T06:46:05;6.90;99.90
13686;DHT22;6915;48.296;8.874;2024-02-14T06:48:32;7.10;99.90
13686;DHT22;6915;48.296;8.874;2024-02-14T06:50:59;7.00;99.90
13686;DHT22;6915;48.296;8.874;2024-02-14T06:53:28;6.90;99.90
13686;DHT22;6915;48.296;8.874;2024-02-14T06:55:56;7.10;99.90
13686;DHT22;6915;48.296;8.874;2024-02-14T06:58:23;7.20;99.90
13686;DHT22;6915;48.296;8.874;2024-02-14T07:00:50;7.00;99.90
13686;DHT22;6915;48.296;8.874;2024-02-14T07:03:17;7.00;99.90
13686;DHT22;6915;48.296;8.874;2024-02-14T07:05:43;7.20;99.90
13686;DHT22;6915;48.296;8.874;2024-02-14T07:08:10;7.10;99.90
13686;DHT22;6915;48.296;8.874;2024-02-14T07:10:39;7.30;99.90
13686;DHT22;6915;48.296;8.874;2024-02-14T07:13:07;7.40;99.90
13686;DHT22;6915;48.296;8.874;2024-02-14T07:15:34;7.30;99.90
13686;DHT22;6915;48.296;8.874;2024-02-14T07:18:00;7.40;99.90
13686;DHT22;6915;48.296;8.874;2024-02-14T07:20:28;7.40;99.90
13686;DHT22;6915;48.296;8.874;2024-02-14T07:22:55;7.50;99.90
13686;DHT22;6915;48.296;8.874;2024-02-14T07:25:22;7.50;99.90
13686;DHT22;6915;48.296;8.874;2024-02-14T07:27:51;7.70;99.90
13686;DHT22;6915;48.296;8.874;2024-02-14T07:30:18;7.60;99.90
13686;DHT22;6915;48.296;8.874;2024-02-14T07:32:45;7.60;99.90
13686;DHT22;6915;48.296;8.874;2024-02-14T07:35:12;7.70;99.90
13686;DHT22;6915;48.296;8.874;2024-02-14T07:37:39;7.80;99.90
13686;DHT22;6915;48.296;8.874;2024-02-14T07:40:09;7.80;99.90
13686;DHT22;6915;48.296;8.874;2024-02-14T07:42:36;7.90;99.90
13686;DHT22;6915;48.296;8.874;2024-02-14T07:45:05;8.00;99.90
13686;DHT22;6915;48.296;8.874;2024-02-14T07:47:32;8.10;99.90
13686;DHT22;6915;48.296;8.874;2024-02-14T07:49:59;8.20;99.90
13686;DHT22;6915;48.296;8.874;2024-02-14T07:52:27;8.20;99.90
13686;DHT22;6915;48.296;8.874;2024-02-14T07:54:55;8.40;99.90
13686;DHT22;6915;48.296;8.874;2024-02-14T07:57:22;8.30;99.90
13686;DHT22;6915;48.296;8.874;2024-02-14T07:59:50;8.30;99.90
13686;DHT22;6915;48.296;8.874;2024-02-14T08:02:19;8.40;99.90
13686;DHT22;6915;48.296;8.874;2024-02-14T08:04:46;8.40;99.90
13686;DHT22;6915;48.296;8.874;2024-02-14T08:07:13;8.70;99.90
13686;DHT22;6915;48.296;8.874;2024-02-14T08:09:40;8.90;99.90
13686;DHT22;6915;48.296;8.874;2024-02-14T08:12:07;9.00;99.90
13686;DHT22;6915;48.296;8.874;2024-02-14T08:14:34;9.30;99.90
13686;DHT22;6915;48.296;8.874;2024-02-14T08:17:02;9.30;99.90
13686;DHT22;6915;48.296;8.874;2024-02-14T08:19:30;9.40;99.90
13686;DHT22;6915;48.296;8.874;2024-02-14T08:21:57;9.30;99.90
13686;DHT22;6915;48.296;8.874;2024-02-14T08:24:25;9.50;99.90
13686;DHT22;6915;48.296;8.874;2024-02-14T08:26:52;9.50;99.90
13686;DHT22;6915;48.296;8.874;2024-02-14T08:29:20;9.40;99.90
13686;DHT22;6915;48.296;8.874;2024-02-14T08:31:47;9.60;99.90
13686;DHT22;6915;48.296;8.874;2024-02-14T08:34:14;9.50;99.90
13686;DHT22;6915;48.296;8.874;2024-02-14T08:36:43;9.70;99.90
13686;DHT22;6915;48.296;8.874;2024-02-14T08:39:10;9.70;99.90
13686;DHT22;6915;48.296;8.874;2024-02-14T08:41:37;9.70;99.90
13686;DHT22;6915;48.296;8.874;2024-02-14T08:44:05;9.80;99.90
13686;DHT22;6915;48.296;8.874;2024-02-14T08:46:32;10.00;99.90
13686;DHT22;6915;48.296;8.874;2024-02-14T08:49:01;9.80;99.90
13686;DHT22;6915;48.296;8.874;2024-02-14T08:51:33;9.80;99.90
13686;DHT22;6915;48.296;8.874;2024-02-14T08:54:01;9.60;99.90
13686;DHT22;6915;48.296;8.874;2024-02-14T08:56:30;9.50;99.90
13686;DHT22;6915;48.296;8.874;2024-02-14T08:58:59;9.50;99.90
13686;DHT22;6915;48.296;8.874;2024-02-14T09:01:26;9.30;99.90
13686;DHT22;6915;48.296;8.874;2024-02-14T09:03:53;9.60;99.90
13686;DHT22;6915;48.296;8.874;2024-02-14T09:06:21;9.50;99.90
13686;DHT22;6915;48.296;8.874;2024-02-14T09:08:48;9.60;99.90
13686;DHT22;6915;48.296;8.874;2024-02-14T09:11:17;9.70;99.90
13686;DHT22;6915;48.296;8.874;2024-02-14T09:13:44;9.80;99.90
13686;DHT22;6915;48.296;8.874;2024-02-14T09:16:13;9.80;99.90
13686;DHT22;6915;48.296;8.874;2024-02-14T09:18:41;9.80;99.90
13686;DHT22;6915;48.296;8.874;2024-02-14T09:21:08;9.90;99.90
13686;DHT22;6915;48.296;8.874;2024-02-14T09:23:35;9.90;99.90
13686;DHT22;6915;48.296;8.874;2024-02-14T09:26:04;10.00;99.90
13686;DHT22;6915;48.296;8.874;2024-02-14T09:28:33;9.90;99.90
13686;DHT22;6915;48.296;8.874;2024-02-14T09:31:00;10.30;99.90
13686;DHT22;6915;48.296;8.874;2024-02-14T09:33:26;10.20;99.90
13686;DHT22;6915;48.296;8.874;2024-02-14T09:35:53;10.20;99.90
13686;DHT22;6915;48.296;8.874;2024-02-14T09:38:20;10.00;99.90
13686;DHT22;6915;48.296;8.874;2024-02-14T09:40:47;10.20;99.90
13686;DHT22;6915;48.296;8.874;2024-02-14T09:43:21;10.20;99.90
13686;DHT22;6915;48.296;8.874;2024-02-14T09:45:52;10.20;99.90
13686;DHT22;6915;48.296;8.874;2024-02-14T09:48:21;10.40;99.90
13686;DHT22;6915;48.296;8.874;2024-02-14T09:50:51;10.30;99.90
13686;DHT22;6915;48.296;8.874;2024-02-14T09:53:19;10.40;99.90
13686;DHT22;6915;48.296;8.874;2024-02-14T09:55:47;10.50;99.90
13686;DHT22;6915;48.296;8.874;2024-02-14T09:58:16;10.70;99.90
13686;DHT22;6915;48.296;8.874;2024-02-14T10:00:43;10.80;99.90
13686;DHT22;6915;48.296;8.874;2024-02-14T10:03:12;10.50;99.90
13686;DHT22;6915;48.296;8.874;2024-02-14T10:05:41;10.50;99.90
13686;DHT22;6915;48.296;8.874;2024-02-14T10:08:08;10.50;99.90
13686;DHT22;6915;48.296;8.874;2024-02-14T10:10:35;10.60;99.90
13686;DHT22;6915;48.296;8.874;2024-02-14T10:13:04;10.70;99.90
13686;DHT22;6915;48.296;8.874;2024-02-14T10:15:31;10.90;99.90
13686;DHT22;6915;48.296;8.874;2024-02-14T10:17:58;11.10;99.90
13686;DHT22;6915;48.296;8.874;2024-02-14T10:20:27;11.20;99.90
13686;DHT22;6915;48.296;8.874;2024-02-14T10:23:01;11.00;99.90
13686;DHT22;6915;48.296;8.874;2024-02-14T10:25:28;10.90;99.90
13686;DHT22;6915;48.296;8.874;2024-02-14T10:27:57;11.00;99.90
13686;DHT22;6915;48.296;8.874;2024-02-14T10:30:24;11.00;99.90
13686;DHT22;6915;48.296;8.874;2024-02-14T10:32:50;10.90;99.90
13686;DHT22;6915;48.296;8.874;2024-02-14T10:35:19;11.00;99.90
13686;DHT22;6915;48.296;8.874;2024-02-14T10:37:49;11.20;99.90
13686;DHT22;6915;48.296;8.874;2024-02-14T10:40:15;11.10;99.90
13686;DHT22;6915;48.296;8.874;2024-02-14T10:42:42;11.20;99.90
13686;DHT22;6915;48.296;8.874;2024-02-14T10:45:10;11.30;99.90
13686;DHT22;6915;48.296;8.874;2024-02-14T10:47:40;11.30;99.90
13686;DHT22;6915;48.296;8.874;2024-02-14T10:50:13;11.30;99.90
13686;DHT22;6915;48.296;8.874;2024-02-14T10:52:41;11.40;99.90
13686;DHT22;6915;48.296;8.874;2024-02-14T10:55:11;11.50;99.90
13686;DHT22;6915;48.296;8.874;2024-02-14T10:57:38;11.50;99.90
13686;DHT22;6915;48.296;8.874;2024-02-14T11:00:08;11.50;99.90
13686;DHT22;6915;48.296;8.874;2024-02-14T11:02:39;11.60;99.90
13686;DHT22;6915;48.296;8.874;2024-02-14T11:05:11;11.70;99.90
13686;DHT22;6915;48.296;8.874;2024-02-14T11:07:44;11.60;99.90
13686;DHT22;6915;48.296;8.874;2024-02-14T11:10:15;11.50;99.90
13686;DHT22;6915;48.296;8.874;2024-02-14T11:12:42;11.70;99.90
13686;DHT22;6915;48.296;8.874;2024-02-14T11:15:11;11.80;99.90
13686;DHT22;6915;48.296;8.874;2024-02-14T11:17:38;11.80;99.90
13686;DHT22;6915;48.296;8.874;2024-02-14T11:20:16;11.80;99.90
13686;DHT22;6915;48.296;8.874;2024-02-14T11:22:57;12.00;99.90
13686;DHT22;6915;48.296;8.874;2024-02-14T11:25:30;12.40;99.90
13686;DHT22;6915;48.296;8.874;2024-02-14T11:27:57;12.30;99.90
13686;DHT22;6915;48.296;8.874;2024-02-14T11:30:33;12.20;99.90
13686;DHT22;6915;48.296;8.874;2024-02-14T11:33:16;12.00;99.90
13686;DHT22;6915;48.296;8.874;2024-02-14T11:35:46;12.00;99.90
13686;DHT22;6915;48.296;8.874;2024-02-14T11:38:13;12.30;99.90
13686;DHT22;6915;48.296;8.874;2024-02-14T11:40:42;12.40;99.90
13686;DHT22;6915;48.296;8.874;2024-02-14T11:43:12;12.50;99.90
13686;DHT22;6915;48.296;8.874;2024-02-14T11:45:41;12.50;99.90
13686;DHT22;6915;48.296;8.874;2024-02-14T11:48:09;12.60;99.90
13686;DHT22;6915;48.296;8.874;2024-02-14T11:50:39;12.70;99.90
13686;DHT22;6915;48.296;8.874;2024-02-14T11:53:07;12.70;99.90
13686;DHT22;6915;48.296;8.874;2024-02-14T11:55:36;12.60;99.90
13686;DHT22;6915;48.296;8.874;2024-02-14T11:58:06;12.80;99.90
13686;DHT22;6915;48.296;8.874;2024-02-14T12:00:33;12.90;99.90
13686;DHT22;6915;48.296;8.874;2024-02-14T12:03:05;13.00;99.90
13686;DHT22;6915;48.296;8.874;2024-02-14T12:05:34;13.00;99.90
13686;DHT22;6915;48.296;8.874;2024-02-14T12:08:01;13.10;99.90
13686;DHT22;6915;48.296;8.874;2024-02-14T12:10:31;13.20;99.90
13686;DHT22;6915;48.296;8.874;2024-02-14T12:12:58;13.30;99.90
13686;DHT22;6915;48.296;8.874;2024-02-14T12:15:27;13.30;99.90
13686;DHT22;6915;48.296;8.874;2024-02-14T12:17:55;13.30;99.90
13686;DHT22;6915;48.296;8.874;2024-02-14T12:20:22;13.20;99.90
13686;DHT22;6915;48.296;8.874;2024-02-14T12:22:50;13.10;99.90
13686;DHT22;6915;48.296;8.874;2024-02-14T12:25:17;13.10;99.90
13686;DHT22;6915;48.296;8.874;2024-02-14T12:27:50;13.20;99.90
13686;DHT22;6915;48.296;8.874;2024-02-14T12:30:18;13.40;99.90
13686;DHT22;6915;48.296;8.874;2024-02-14T12:32:57;13.60;99.90
13686;DHT22;6915;48.296;8.874;2024-02-14T12:35:24;13.90;99.90
13686;DHT22;6915;48.296;8.874;2024-02-14T12:37:51;14.10;99.90
13686;DHT22;6915;48.296;8.874;2024-02-14T12:40:19;14.20;99.90
13686;DHT22;6915;48.296;8.874;2024-02-14T12:42:46;14.40;99.90
13686;DHT22;6915;48.296;8.874;2024-02-14T12:45:13;14.50;99.90
13686;DHT22;6915;48.296;8.874;2024-02-14T12:47:40;14.20;99.90
13686;DHT22;6915;48.296;8.874;2024-02-14T12:50:10;13.90;99.90
13686;DHT22;6915;48.296;8.874;2024-02-14T12:52:37;13.70;99.90
13686;DHT22;6915;48.296;8.874;2024-02-14T12:55:04;13.80;99.90
13686;DHT22;6915;48.296;8.874;2024-02-14T12:57:31;14.00;99.90
13686;DHT22;6915;48.296;8.874;2024-02-14T12:59:58;13.90;99.90
13686;DHT22;6915;48.296;8.874;2024-02-14T13:02:25;13.90;99.90
13686;DHT22;6915;48.296;8.874;2024-02-14T13:04:54;13.90;99.90
13686;DHT22;6915;48.296;8.874;2024-02-14T13:07:22;14.30;99.90
13686;DHT22;6915;48.296;8.874;2024-02-14T13:09:49;14.40;99.90
13686;DHT22;6915;48.296;8.874;2024-02-14T13:12:16;14.40;99.90
13686;DHT22;6915;48.296;8.874;2024-02-14T13:14:43;14.40;99.90
13686;DHT22;6915;48.296;8.874;2024-02-14T13:17:10;14.50;99.90
13686;DHT22;6915;48.296;8.874;2024-02-14T13:19:37;14.30;99.90
13686;DHT22;6915;48.296;8.874;2024-02-14T13:22:05;14.10;99.90
13686;DHT22;6915;48.296;8.874;2024-02-14T13:24:33;14.30;99.90
13686;DHT22;6915;48.296;8.874;2024-02-14T13:27:00;14.30;99.90
13686;DHT22;6915;48.296;8.874;2024-02-14T13:29:27;14.50;99.90
13686;DHT22;6915;48.296;8.874;2024-02-14T13:31:54;14.70;99.90
13686;DHT22;6915;48.296;8.874;2024-02-14T13:34:21;14.80;99.90
13686;DHT22;6915;48.296;8.874;2024-02-14T13:36:49;14.70;99.90
13686;DHT22;6915;48.296;8.874;2024-02-14T13:39:16;14.80;99.90
13686;DHT22;6915;48.296;8.874;2024-02-14T13:41:45;14.90;99.90
13686;DHT22;6915;48.296;8.874;2024-02-14T13:44:13;14.80;99.90
13686;DHT22;6915;48.296;8.874;2024-02-14T13:46:44;14.80;99.90
13686;DHT22;6915;48.296;8.874;2024-02-14T13:49:11;14.70;99.90
13686;DHT22;6915;48.296;8.874;2024-02-14T13:51:43;14.70;99.90
13686;DHT22;6915;48.296;8.874;2024-02-14T13:54:10;14.50;99.90
13686;DHT22;6915;48.296;8.874;2024-02-14T13:56:37;14.40;99.90
13686;DHT22;6915;48.296;8.874;2024-02-14T13:59:06;14.30;99.90
13686;DHT22;6915;48.296;8.874;2024-02-14T14:01:33;13.90;99.90
13686;DHT22;6915;48.296;8.874;2024-02-14T14:03:59;13.80;99.90
13686;DHT22;6915;48.296;8.874;2024-02-14T14:06:26;13.80;99.90
13686;DHT22;6915;48.296;8.874;2024-02-14T14:08:54;13.80;99.90
13686;DHT22;6915;48.296;8.874;2024-02-14T14:11:21;13.70;99.90
13686;DHT22;6915;48.296;8.874;2024-02-14T14:16:24;13.60;99.90
13686;DHT22;6915;48.296;8.874;2024-02-14T14:18:52;13.50;99.90
13686;DHT22;6915;48.296;8.874;2024-02-14T14:21:19;13.50;99.90
13686;DHT22;6915;48.296;8.874;2024-02-14T14:23:46;13.50;99.90
13686;DHT22;6915;48.296;8.874;2024-02-14T14:26:13;13.50;99.90
13686;DHT22;6915;48.296;8.874;2024-02-14T14:28:41;13.60;99.90
13686;DHT22;6915;48.296;8.874;2024-02-14T14:31:08;13.50;99.90
13686;DHT22;6915;48.296;8.874;2024-02-14T14:33:38;13.50;99.90
13686;DHT22;6915;48.296;8.874;2024-02-14T14:36:06;13.40;99.90
13686;DHT22;6915;48.296;8.874;2024-02-14T14:38:34;13.40;99.90
13686;DHT22;6915;48.296;8.874;2024-02-14T14:41:01;13.40;99.90
13686;DHT22;6915;48.296;8.874;2024-02-14T14:43:28;13.40;99.90
13686;DHT22;6915;48.296;8.874;2024-02-14T14:45:55;13.60;99.90
13686;DHT22;6915;48.296;8.874;2024-02-14T14:48:23;13.50;99.90
13686;DHT22;6915;48.296;8.874;2024-02-14T14:50:51;13.40;99.90
13686;DHT22;6915;48.296;8.874;2024-02-14T14:53:18;13.50;99.90
13686;DHT22;6915;48.296;8.874;2024-02-14T14:55:53;13.40;99.90
13686;DHT22;6915;48.296;8.874;2024-02-14T14:58:21;13.40;99.90
13686;DHT22;6915;48.296;8.874;2024-02-14T15:00:49;13.30;99.90
13686;DHT22;6915;48.296;8.874;2024-02-14T15:03:16;13.20;99.90
13686;DHT22;6915;48.296;8.874;2024-02-14T15:05:43;13.20;99.90
13686;DHT22;6915;48.296;8.874;2024-02-14T15:08:11;13.20;99.90
13686;DHT22;6915;48.296;8.874;2024-02-14T15:10:38;13.10;99.90
13686;DHT22;6915;48.296;8.874;2024-02-14T15:13:06;13.10;99.90
13686;DHT22;6915;48.296;8.874;2024-02-14T15:15:34;13.00;99.90
13686;DHT22;6915;48.296;8.874;2024-02-14T15:18:01;13.00;99.90
13686;DHT22;6915;48.296;8.874;2024-02-14T15:20:28;12.90;99.90
13686;DHT22;6915;48.296;8.874;2024-02-14T15:22:56;12.90;99.90
13686;DHT22;6915;48.296;8.874;2024-02-14T15:25:25;12.80;99.90
13686;DHT22;6915;48.296;8.874;2024-02-14T15:27:52;12.80;99.90
13686;DHT22;6915;48.296;8.874;2024-02-14T15:30:21;12.80;99.90
13686;DHT22;6915;48.296;8.874;2024-02-14T15:33:06;12.70;99.90
13686;DHT22;6915;48.296;8.874;2024-02-14T15:35:48;12.70;99.90
13686;DHT22;6915;48.296;8.874;2024-02-14T15:38:15;12.70;99.90
13686;DHT22;6915;48.296;8.874;2024-02-14T15:40:45;12.70;99.90
13686;DHT22;6915;48.296;8.874;2024-02-14T15:43:13;12.60;99.90
13686;DHT22;6915;48.296;8.874;2024-02-14T15:45:40;12.50;99.90
13686;DHT22;6915;48.296;8.874;2024-02-14T15:48:07;12.50;99.90
13686;DHT22;6915;48.296;8.874;2024-02-14T15:50:35;12.40;99.90
13686;DHT22;6915;48.296;8.874;2024-02-14T15:53:03;12.40;99.90
13686;DHT22;6915;48.296;8.874;2024-02-14T15:55:31;12.20;99.90
13686;DHT22;6915;48.296;8.874;2024-02-14T15:57:59;12.30;99.90
13686;DHT22;6915;48.296;8.874;2024-02-14T16:00:27;12.20;99.90
13686;DHT22;6915;48.296;8.874;2024-02-14T16:02:55;12.20;99.90
13686;DHT22;6915;48.296;8.874;2024-02-14T16:05:23;12.20;99.90
13686;DHT22;6915;48.296;8.874;2024-02-14T16:07:50;12.20;99.90
13686;DHT22;6915;48.296;8.874;2024-02-14T16:10:20;12.00;99.90